Westview Chinook — VG3278 — position and weather

sailwx.info

Track history (hours):
 
Tides and Currents Weather Stations Pressure Air Temp Water Temp Dewpoint Dewpoint Depression Visibility Wind Speed Wind Dir Waves Ship Positions

Westview Chinook

Last reported at 2014-Sep-17 10:33 UTC. Time now 2014-Sep-17 11:34 UTC.
Position N 49°14' W 122°46'.

Length 16 m; draft 3.5 m.

Type: Towing. MMSI: 316005622.

Date/timePositionNaut miles runAvg speedWind from/ knotsBaromVisibWave heightAir tempDewpointWater temp
2014-Sep-17 10:33N 49°14' W 122°46'0 0.0
2014-Sep-17 09:33N 49°14' W 122°46'0 0.0
2014-Sep-17 08:33N 49°14' W 122°46'0 0.0
2014-Sep-17 07:33N 49°14' W 122°46'0 0.0
2014-Sep-17 06:33N 49°14' W 122°46'0 0.0
2014-Sep-17 05:33N 49°14' W 122°46'0 0.0
2014-Sep-17 04:33N 49°14' W 122°46'0 0.0
2014-Sep-17 03:33N 49°14' W 122°46'0 0.0
2014-Sep-17 02:33N 49°14' W 122°46'0 0.0
2014-Sep-17 01:33N 49°14' W 122°46'2 1.8
2014-Sep-17 00:34N 49°13' W 122°48'8 7.8
2014-Sep-16 23:33N 49°11' W 123°00'5 5.2
2014-Sep-16 22:34N 49°12' W 123°08'7 6.9
2014-Sep-16 21:34N 49°16' W 123°17'5 5.5
2014-Sep-16 20:33N 49°19' W 123°10'3 2.5
2014-Sep-16 19:33N 49°19' W 123°06'0 0.0
2014-Sep-16 18:33N 49°19' W 123°06'0 0.5
2014-Sep-16 17:33N 49°18' W 123°06'1 0.7
2014-Sep-16 16:34N 49°18' W 123°07'2 1.6
2014-Sep-16 15:34N 49°18' W 123°05'2 1.9
2014-Sep-16 14:33N 49°18' W 123°02'0 0.0
2014-Sep-16 13:33N 49°18' W 123°02'0 0.0
2014-Sep-16 12:33N 49°18' W 123°02'0 0.0
2014-Sep-16 11:33N 49°18' W 123°02'0 0.0
2014-Sep-16 10:33N 49°18' W 123°02'0 0.0
2014-Sep-16 09:33N 49°18' W 123°02'0 0.0
2014-Sep-16 08:33N 49°18' W 123°02'0 0.0
2014-Sep-16 07:33N 49°18' W 123°02'0 0.0
2014-Sep-16 06:33N 49°18' W 123°02'0 0.0
2014-Sep-16 05:33N 49°18' W 123°02'0 0.0
2014-Sep-16 04:33N 49°18' W 123°02'0 0.0
2014-Sep-16 03:33N 49°18' W 123°02'0 0.0
2014-Sep-16 02:33N 49°18' W 123°02'0 0.0
2014-Sep-16 01:33N 49°18' W 123°02'0 0.3
2014-Sep-16 00:33N 49°18' W 123°01'0 0.0
2014-Sep-15 23:33N 49°18' W 123°01'0 0.0
2014-Sep-15 22:32N 49°18' W 123°01'0 0.0
2014-Sep-15 21:33N 49°18' W 123°01'0 0.0
2014-Sep-15 20:34N 49°18' W 123°01'0 0.0
2014-Sep-15 19:34N 49°18' W 123°01'0 0.0
2014-Sep-15 18:34N 49°18' W 123°01'0 0.0
2014-Sep-15 17:34N 49°18' W 123°01'0 0.0
2014-Sep-15 16:34N 49°18' W 123°01'0 0.0
2014-Sep-15 15:34N 49°18' W 123°01'0 0.3
2014-Sep-15 14:33N 49°18' W 123°02'0 0.0
2014-Sep-15 13:33N 49°18' W 123°02'0 0.0
2014-Sep-15 12:34N 49°18' W 123°02'2 2.2
2014-Sep-15 11:33N 49°18' W 123°05'9 9.2
2014-Sep-15 10:34N 49°18' W 123°19'10 9.9
2014-Sep-15 09:33N 49°15' W 123°34'1010.2
2014-Sep-15 08:33N 49°13' W 123°49'3 3.4
2014-Sep-15 07:33N 49°11' W 123°54'8 7.6
2014-Sep-15 06:34N 49°11' W 123°42'8 8.4
2014-Sep-15 05:33N 49°08' W 123°30'8 8.2
2014-Sep-15 04:34N 49°06' W 123°18'8 8.1
2014-Sep-15 03:34N 49°07' W 123°06'8 8.1
2014-Sep-15 02:33N 49°11' W 122°55'6 5.9
2014-Sep-15 01:33N 49°14' W 122°47'1 0.6
2014-Sep-15 00:32N 49°14' W 122°46'0 0.0
2014-Sep-14 23:33N 49°14' W 122°46'0 0.0
2014-Sep-14 22:29N 49°14' W 122°46'0 0.0
2014-Sep-14 21:33N 49°14' W 122°46'0 0.0
2014-Sep-14 20:33N 49°14' W 122°46'0 0.0
2014-Sep-14 19:34N 49°14' W 122°46'0 0.0
2014-Sep-14 18:33N 49°14' W 122°46'0 0.0
2014-Sep-14 17:33N 49°14' W 122°46'0 0.0
2014-Sep-14 16:33N 49°14' W 122°46'0 0.0
2014-Sep-14 15:33N 49°14' W 122°46'0 0.0
2014-Sep-14 14:33N 49°14' W 122°46'0 0.0
2014-Sep-14 13:34N 49°14' W 122°46'1 1.1
2014-Sep-14 12:33N 49°13' W 122°47'5 5.5
2014-Sep-14 11:34N 49°11' W 122°55'1 0.9
2014-Sep-14 10:34N 49°12' W 122°55'3 2.9
2014-Sep-14 09:34N 49°11' W 122°60'3 3.3
2014-Sep-14 08:33N 49°12' W 123°05'3 3.5
2014-Sep-14 07:33N 49°13' W 123°10'4 4.4
2014-Sep-14 06:34N 49°15' W 123°16'5 5.5
2014-Sep-14 05:34N 49°15' W 123°24'0 0.3
2014-Sep-14 04:34N 49°15' W 123°24'5 5.3
2014-Sep-14 03:33N 49°15' W 123°16'4 4.1
2014-Sep-14 02:33N 49°13' W 123°10'4 3.9
2014-Sep-14 01:33N 49°12' W 123°04'6 1.6
2014-Sep-13 21:33N 49°11' W 122°55'0 0.0
2014-Sep-13 20:33N 49°11' W 122°55'0 0.0
2014-Sep-13 19:33N 49°11' W 122°55'1 1.4
2014-Sep-13 18:33N 49°12' W 122°57'5 5.0
2014-Sep-13 17:33N 49°12' W 123°04'0 0.0
2014-Sep-13 16:33N 49°12' W 123°04'3 2.5
2014-Sep-13 15:33N 49°12' W 123°08'2 1.9
2014-Sep-13 14:33N 49°12' W 123°05'5 5.5
2014-Sep-13 13:33N 49°12' W 122°57'8 7.6
2014-Sep-13 12:34N 49°14' W 122°46'0 0.0
2014-Sep-13 11:33N 49°14' W 122°46'0 0.0
2014-Sep-13 10:33N 49°14' W 122°46'0 0.0
2014-Sep-13 09:32N 49°14' W 122°46'0 0.0
2014-Sep-13 08:33N 49°14' W 122°46'0 0.0
2014-Sep-13 07:34N 49°14' W 122°46'0 0.0
2014-Sep-13 06:34N 49°14' W 122°46'0 0.0
2014-Sep-13 05:33N 49°14' W 122°46'2 2.2
2014-Sep-13 04:34N 49°13' W 122°49'4 4.3
2014-Sep-13 03:34N 49°12' W 122°55'6 6.5
2014-Sep-13 02:34N 49°12' W 123°05'9 8.5
2014-Sep-13 01:34N 49°15' W 123°17'10 9.6
2014-Sep-13 00:34N 49°14' W 123°32'10 9.5
2014-Sep-12 23:34N 49°13' W 123°46'6 6.0
2014-Sep-12 22:33N 49°09' W 123°53'3 2.5
2014-Sep-12 21:34N 49°11' W 123°53'7 7.3
2014-Sep-12 20:34N 49°12' W 123°42'8 7.7
2014-Sep-12 19:34N 49°09' W 123°31'8 7.6
2014-Sep-12 18:34N 49°06' W 123°20'8 8.1
2014-Sep-12 17:34N 49°06' W 123°07'7 6.9
2014-Sep-12 16:34N 49°10' W 122°58'6 6.1
2014-Sep-12 15:34N 49°13' W 122°50'3 3.0
2014-Sep-12 14:33N 49°14' W 122°46'3 2.9
2014-Sep-12 13:34N 49°13' W 122°50'4 1.8
2014-Sep-12 11:33N 49°12' W 122°55'5 5.1
2014-Sep-12 10:33N 49°12' W 123°03'1 0.8
2014-Sep-12 09:33N 49°12' W 123°04'0 0.0
2014-Sep-12 08:33N 49°12' W 123°04'4 4.2
2014-Sep-12 07:33N 49°11' W 122°58'9 8.9
2014-Sep-12 06:33N 49°13' W 122°45'5 5.2
2014-Sep-12 05:33N 49°13' W 122°53'2 1.7
2014-Sep-12 04:32N 49°12' W 122°55'1 0.8
2014-Sep-12 03:33N 49°12' W 122°54'4 3.7
2014-Sep-12 02:32N 49°13' W 122°48'6 5.6
2014-Sep-12 01:33N 49°12' W 122°40'5 3.2
2014-Sep-12 00:07N 49°14' W 122°46'1 2.0
2014-Sep-11 23:33N 49°13' W 122°45'7 5.8
2014-Sep-11 22:24N 49°12' W 122°55'4 5.3
2014-Sep-11 21:33N 49°12' W 123°02'1 1.5
2014-Sep-11 20:33N 49°12' W 123°04'1 1.2
2014-Sep-11 19:33N 49°12' W 123°02'4 3.9
2014-Sep-11 18:33N 49°12' W 123°08'6 5.5
2014-Sep-11 17:33N 49°15' W 123°15'2 2.0
2014-Sep-11 16:34N 49°14' W 123°13'4 3.6
2014-Sep-11 15:33N 49°12' W 123°08'3 2.9
2014-Sep-11 14:33N 49°12' W 123°04'6 6.2
2014-Sep-11 13:33N 49°12' W 122°54'6 5.5
2014-Sep-11 12:31N 49°14' W 122°46'0 0.0
2014-Sep-11 11:31N 49°14' W 122°46'0 0.0
2014-Sep-11 10:31N 49°14' W 122°46'0 0.0
2014-Sep-11 09:33N 49°14' W 122°46'3 2.5
2014-Sep-11 08:33N 49°13' W 122°50'3 3.4
2014-Sep-11 07:33N 49°12' W 122°54'4 3.5
2014-Sep-11 06:33N 49°13' W 122°49'6 6.1
2014-Sep-11 05:33N 49°10' W 122°57'1 1.4
2014-Sep-11 04:33N 49°11' W 122°55'5 4.7
2014-Sep-11 03:33N 49°13' W 122°49'6 6.1
2014-Sep-11 02:33N 49°12' W 122°40'1 1.0
2014-Sep-11 01:32N 49°11' W 122°41'4 3.9
2014-Sep-11 00:25N 49°14' W 122°46'1 1.5
2014-Sep-10 23:32N 49°13' W 122°45'5 5.4
2014-Sep-10 22:33N 49°13' W 122°53'5 4.7
2014-Sep-10 21:33N 49°09' W 122°57'2 1.6
2014-Sep-10 20:33N 49°09' W 122°60'2 2.0
2014-Sep-10 19:33N 49°10' W 122°57'2 2.2
2014-Sep-10 18:33N 49°11' W 122°55'7 7.4
2014-Sep-10 17:33N 49°13' W 122°44'0 0.5
2014-Sep-10 16:33N 49°13' W 122°44'7 6.6
2014-Sep-10 15:33N 49°12' W 122°54'1 0.8
2014-Sep-10 14:33N 49°11' W 122°55'1 1.0
2014-Sep-10 13:33N 49°12' W 122°56'2 1.2
2014-Sep-10 11:34N 49°10' W 122°57'6 6.0
2014-Sep-10 10:33N 49°07' W 123°05'7 6.5
2014-Sep-10 09:33N 49°10' W 122°56'4 4.1
2014-Sep-10 08:33N 49°13' W 122°53'5 4.6
2014-Sep-10 07:34N 49°13' W 122°46'4 3.8
2014-Sep-10 06:33N 49°11' W 122°41'3 2.9
2014-Sep-10 05:33N 49°13' W 122°45'2 1.7
2014-Sep-10 04:33N 49°15' W 122°44'6 6.1
2014-Sep-10 03:33N 49°13' W 122°53'5 5.5
2014-Sep-10 02:33N 49°09' W 122°59'4 4.4
2014-Sep-10 01:34N 49°07' W 123°05'0 0.0
2014-Sep-10 00:33N 49°08' W 123°05'0 0.2
2014-Sep-09 23:33N 49°07' W 123°05'0 0.1
2014-Sep-09 22:33N 49°07' W 123°05'5 5.1
2014-Sep-09 21:33N 49°09' W 122°58'5 4.7
2014-Sep-09 20:33N 49°13' W 122°53'1 1.1
2014-Sep-09 19:33N 49°12' W 122°54'5 5.2
2014-Sep-09 18:33N 49°09' W 123°01'1 0.7
2014-Sep-09 17:33N 49°09' W 123°02'4 4.3
2014-Sep-09 16:33N 49°10' W 122°55'1 0.9
2014-Sep-09 15:33N 49°11' W 122°55'2 2.5
2014-Sep-09 14:33N 49°11' W 122°59'7 7.2
2014-Sep-09 13:33N 49°13' W 123°09'6 5.6
2014-Sep-09 12:33N 49°12' W 123°18'6 5.8
2014-Sep-09 11:33N 49°06' W 123°19'5 4.7
2014-Sep-09 10:33N 49°07' W 123°12'5 5.3
2014-Sep-09 09:33N 49°08' W 123°04'7 7.0
2014-Sep-09 08:33N 49°12' W 122°55'0 0.3
2014-Sep-09 07:33N 49°12' W 122°55'3 2.9
2014-Sep-09 06:33N 49°09' W 122°57'6 5.6
2014-Sep-09 05:33N 49°13' W 122°51'6 5.8
2014-Sep-09 04:33N 49°11' W 122°42'0 0.2
2014-Sep-09 03:33N 49°11' W 122°43'4 3.9
2014-Sep-09 02:33N 49°15' W 122°44'1 1.5
2014-Sep-09 01:33N 49°14' W 122°46'0 0.0
2014-Sep-09 00:33N 49°14' W 122°46'6 6.5
2014-Sep-08 23:33N 49°11' W 122°55'0 0.3
2014-Sep-08 22:33N 49°11' W 122°55'3 2.5
2014-Sep-08 21:32N 49°13' W 122°53'2 1.8
2014-Sep-08 20:33N 49°12' W 122°54'1 1.2
2014-Sep-08 19:33N 49°11' W 122°55'6 5.5
2014-Sep-08 18:33N 49°12' W 123°04'7 6.9
2014-Sep-08 17:33N 49°14' W 123°14'2 1.6
2014-Sep-08 16:33N 49°15' W 123°15'3 2.7
2014-Sep-08 15:33N 49°13' W 123°19'2 1.8
2014-Sep-08 14:33N 49°15' W 123°18'8 8.3
2014-Sep-08 13:33N 49°12' W 123°06'2 1.6
2014-Sep-08 12:30N 49°12' W 123°03'0 0.0
2014-Sep-08 07:33N 49°12' W 123°03'5 5.5
2014-Sep-08 06:33N 49°12' W 122°55'1 1.3
2014-Sep-08 05:33N 49°10' W 122°56'4 4.1
2014-Sep-08 04:33N 49°13' W 122°51'3 3.0
2014-Sep-08 03:28N 49°14' W 122°46'0 0.0
2014-Sep-08 02:26N 49°14' W 122°46'0 0.0
2014-Sep-08 01:33N 49°14' W 122°46'0 0.0
2014-Sep-08 00:22N 49°14' W 122°46'0 0.0
2014-Sep-07 23:32N 49°14' W 122°46'0 0.0
2014-Sep-07 21:20N 49°14' W 122°46'0 0.0
2014-Sep-07 20:29N 49°14' W 122°46'0 0.0
2014-Sep-07 19:33N 49°14' W 122°46'0 0.0
2014-Sep-07 18:33N 49°14' W 122°46'0 0.0
2014-Sep-07 17:33N 49°14' W 122°46'0 0.0
2014-Sep-07 16:30N 49°14' W 122°46'0 0.0
2014-Sep-07 15:33N 49°14' W 122°46'0 0.0
2014-Sep-07 14:33N 49°14' W 122°46'0 0.0
2014-Sep-07 13:33N 49°14' W 122°46'0 0.0
2014-Sep-07 12:33N 49°14' W 122°46'0 0.0
2014-Sep-07 11:33N 49°14' W 122°46'  
Track history (hours):
 
Tides and Currents Weather Stations Pressure Air Temp Water Temp Dewpoint Dewpoint Depression Visibility Wind Speed Wind Dir Waves Ship Positions

Westview Chinook

Last reported at 2014-Sep-17 10:33 UTC. Time now 2014-Sep-17 11:34 UTC.
Position N 49°14' W 122°46'.

Length 16 m; draft 3.5 m.

Type: Towing. MMSI: 316005622.

Date/timePositionNaut miles runAvg speedWind from/ knotsBaromVisibWave heightAir tempDewpointWater temp
2014-Sep-17 10:33N 49°14' W 122°46'0 0.0
2014-Sep-17 09:33N 49°14' W 122°46'0 0.0
2014-Sep-17 08:33N 49°14' W 122°46'0 0.0
2014-Sep-17 07:33N 49°14' W 122°46'0 0.0
2014-Sep-17 06:33N 49°14' W 122°46'0 0.0
2014-Sep-17 05:33N 49°14' W 122°46'0 0.0
2014-Sep-17 04:33N 49°14' W 122°46'0 0.0
2014-Sep-17 03:33N 49°14' W 122°46'0 0.0
2014-Sep-17 02:33N 49°14' W 122°46'0 0.0
2014-Sep-17 01:33N 49°14' W 122°46'2 1.8
2014-Sep-17 00:34N 49°13' W 122°48'8 7.8
2014-Sep-16 23:33N 49°11' W 123°00'5 5.2
2014-Sep-16 22:34N 49°12' W 123°08'7 6.9
2014-Sep-16 21:34N 49°16' W 123°17'5 5.5
2014-Sep-16 20:33N 49°19' W 123°10'3 2.5
2014-Sep-16 19:33N 49°19' W 123°06'0 0.0
2014-Sep-16 18:33N 49°19' W 123°06'0 0.5
2014-Sep-16 17:33N 49°18' W 123°06'1 0.7
2014-Sep-16 16:34N 49°18' W 123°07'2 1.6
2014-Sep-16 15:34N 49°18' W 123°05'2 1.9
2014-Sep-16 14:33N 49°18' W 123°02'0 0.0
2014-Sep-16 13:33N 49°18' W 123°02'0 0.0
2014-Sep-16 12:33N 49°18' W 123°02'0 0.0
2014-Sep-16 11:33N 49°18' W 123°02'0 0.0
2014-Sep-16 10:33N 49°18' W 123°02'0 0.0
2014-Sep-16 09:33N 49°18' W 123°02'0 0.0
2014-Sep-16 08:33N 49°18' W 123°02'0 0.0
2014-Sep-16 07:33N 49°18' W 123°02'0 0.0
2014-Sep-16 06:33N 49°18' W 123°02'0 0.0
2014-Sep-16 05:33N 49°18' W 123°02'0 0.0
2014-Sep-16 04:33N 49°18' W 123°02'0 0.0
2014-Sep-16 03:33N 49°18' W 123°02'0 0.0
2014-Sep-16 02:33N 49°18' W 123°02'0 0.0
2014-Sep-16 01:33N 49°18' W 123°02'0 0.3
2014-Sep-16 00:33N 49°18' W 123°01'0 0.0
2014-Sep-15 23:33N 49°18' W 123°01'0 0.0
2014-Sep-15 22:32N 49°18' W 123°01'0 0.0
2014-Sep-15 21:33N 49°18' W 123°01'0 0.0
2014-Sep-15 20:34N 49°18' W 123°01'0 0.0
2014-Sep-15 19:34N 49°18' W 123°01'0 0.0
2014-Sep-15 18:34N 49°18' W 123°01'0 0.0
2014-Sep-15 17:34N 49°18' W 123°01'0 0.0
2014-Sep-15 16:34N 49°18' W 123°01'0 0.0
2014-Sep-15 15:34N 49°18' W 123°01'0 0.3
2014-Sep-15 14:33N 49°18' W 123°02'0 0.0
2014-Sep-15 13:33N 49°18' W 123°02'0 0.0
2014-Sep-15 12:34N 49°18' W 123°02'2 2.2
2014-Sep-15 11:33N 49°18' W 123°05'9 9.2
2014-Sep-15 10:34N 49°18' W 123°19'10 9.9
2014-Sep-15 09:33N 49°15' W 123°34'1010.2
2014-Sep-15 08:33N 49°13' W 123°49'3 3.4
2014-Sep-15 07:33N 49°11' W 123°54'8 7.6
2014-Sep-15 06:34N 49°11' W 123°42'8 8.4
2014-Sep-15 05:33N 49°08' W 123°30'8 8.2
2014-Sep-15 04:34N 49°06' W 123°18'8 8.1
2014-Sep-15 03:34N 49°07' W 123°06'8 8.1
2014-Sep-15 02:33N 49°11' W 122°55'6 5.9
2014-Sep-15 01:33N 49°14' W 122°47'1 0.6
2014-Sep-15 00:32N 49°14' W 122°46'0 0.0
2014-Sep-14 23:33N 49°14' W 122°46'0 0.0
2014-Sep-14 22:29N 49°14' W 122°46'0 0.0
2014-Sep-14 21:33N 49°14' W 122°46'0 0.0
2014-Sep-14 20:33N 49°14' W 122°46'0 0.0
2014-Sep-14 19:34N 49°14' W 122°46'0 0.0
2014-Sep-14 18:33N 49°14' W 122°46'0 0.0
2014-Sep-14 17:33N 49°14' W 122°46'0 0.0
2014-Sep-14 16:33N 49°14' W 122°46'0 0.0
2014-Sep-14 15:33N 49°14' W 122°46'0 0.0
2014-Sep-14 14:33N 49°14' W 122°46'0 0.0
2014-Sep-14 13:34N 49°14' W 122°46'1 1.1
2014-Sep-14 12:33N 49°13' W 122°47'5 5.5
2014-Sep-14 11:34N 49°11' W 122°55'1 0.9
2014-Sep-14 10:34N 49°12' W 122°55'3 2.9
2014-Sep-14 09:34N 49°11' W 122°60'3 3.3
2014-Sep-14 08:33N 49°12' W 123°05'3 3.5
2014-Sep-14 07:33N 49°13' W 123°10'4 4.4
2014-Sep-14 06:34N 49°15' W 123°16'5 5.5
2014-Sep-14 05:34N 49°15' W 123°24'0 0.3
2014-Sep-14 04:34N 49°15' W 123°24'5 5.3
2014-Sep-14 03:33N 49°15' W 123°16'4 4.1
2014-Sep-14 02:33N 49°13' W 123°10'4 3.9
2014-Sep-14 01:33N 49°12' W 123°04'6 1.6
2014-Sep-13 21:33N 49°11' W 122°55'0 0.0
2014-Sep-13 20:33N 49°11' W 122°55'0 0.0
2014-Sep-13 19:33N 49°11' W 122°55'1 1.4
2014-Sep-13 18:33N 49°12' W 122°57'5 5.0
2014-Sep-13 17:33N 49°12' W 123°04'0 0.0
2014-Sep-13 16:33N 49°12' W 123°04'3 2.5
2014-Sep-13 15:33N 49°12' W 123°08'2 1.9
2014-Sep-13 14:33N 49°12' W 123°05'5 5.5
2014-Sep-13 13:33N 49°12' W 122°57'8 7.6
2014-Sep-13 12:34N 49°14' W 122°46'0 0.0
2014-Sep-13 11:33N 49°14' W 122°46'0 0.0
2014-Sep-13 10:33N 49°14' W 122°46'0 0.0
2014-Sep-13 09:32N 49°14' W 122°46'0 0.0
2014-Sep-13 08:33N 49°14' W 122°46'0 0.0
2014-Sep-13 07:34N 49°14' W 122°46'0 0.0
2014-Sep-13 06:34N 49°14' W 122°46'0 0.0
2014-Sep-13 05:33N 49°14' W 122°46'2 2.2
2014-Sep-13 04:34N 49°13' W 122°49'4 4.3
2014-Sep-13 03:34N 49°12' W 122°55'6 6.5
2014-Sep-13 02:34N 49°12' W 123°05'9 8.5
2014-Sep-13 01:34N 49°15' W 123°17'10 9.6
2014-Sep-13 00:34N 49°14' W 123°32'10 9.5
2014-Sep-12 23:34N 49°13' W 123°46'6 6.0
2014-Sep-12 22:33N 49°09' W 123°53'3 2.5
2014-Sep-12 21:34N 49°11' W 123°53'7 7.3
2014-Sep-12 20:34N 49°12' W 123°42'8 7.7
2014-Sep-12 19:34N 49°09' W 123°31'8 7.6
2014-Sep-12 18:34N 49°06' W 123°20'8 8.1
2014-Sep-12 17:34N 49°06' W 123°07'7 6.9
2014-Sep-12 16:34N 49°10' W 122°58'6 6.1
2014-Sep-12 15:34N 49°13' W 122°50'3 3.0
2014-Sep-12 14:33N 49°14' W 122°46'3 2.9
2014-Sep-12 13:34N 49°13' W 122°50'4 1.8
2014-Sep-12 11:33N 49°12' W 122°55'5 5.1
2014-Sep-12 10:33N 49°12' W 123°03'1 0.8
2014-Sep-12 09:33N 49°12' W 123°04'0 0.0
2014-Sep-12 08:33N 49°12' W 123°04'4 4.2
2014-Sep-12 07:33N 49°11' W 122°58'9 8.9
2014-Sep-12 06:33N 49°13' W 122°45'5 5.2
2014-Sep-12 05:33N 49°13' W 122°53'2 1.7
2014-Sep-12 04:32N 49°12' W 122°55'1 0.8
2014-Sep-12 03:33N 49°12' W 122°54'4 3.7
2014-Sep-12 02:32N 49°13' W 122°48'6 5.6
2014-Sep-12 01:33N 49°12' W 122°40'5 3.2
2014-Sep-12 00:07N 49°14' W 122°46'1 2.0
2014-Sep-11 23:33N 49°13' W 122°45'7 5.8
2014-Sep-11 22:24N 49°12' W 122°55'4 5.3
2014-Sep-11 21:33N 49°12' W 123°02'1 1.5
2014-Sep-11 20:33N 49°12' W 123°04'1 1.2
2014-Sep-11 19:33N 49°12' W 123°02'4 3.9
2014-Sep-11 18:33N 49°12' W 123°08'6 5.5
2014-Sep-11 17:33N 49°15' W 123°15'2 2.0
2014-Sep-11 16:34N 49°14' W 123°13'4 3.6
2014-Sep-11 15:33N 49°12' W 123°08'3 2.9
2014-Sep-11 14:33N 49°12' W 123°04'6 6.2
2014-Sep-11 13:33N 49°12' W 122°54'6 5.5
2014-Sep-11 12:31N 49°14' W 122°46'0 0.0
2014-Sep-11 11:31N 49°14' W 122°46'0 0.0
2014-Sep-11 10:31N 49°14' W 122°46'0 0.0
2014-Sep-11 09:33N 49°14' W 122°46'3 2.5
2014-Sep-11 08:33N 49°13' W 122°50'3 3.4
2014-Sep-11 07:33N 49°12' W 122°54'4 3.5
2014-Sep-11 06:33N 49°13' W 122°49'6 6.1
2014-Sep-11 05:33N 49°10' W 122°57'1 1.4
2014-Sep-11 04:33N 49°11' W 122°55'5 4.7
2014-Sep-11 03:33N 49°13' W 122°49'6 6.1
2014-Sep-11 02:33N 49°12' W 122°40'1 1.0
2014-Sep-11 01:32N 49°11' W 122°41'4 3.9
2014-Sep-11 00:25N 49°14' W 122°46'1 1.5
2014-Sep-10 23:32N 49°13' W 122°45'5 5.4
2014-Sep-10 22:33N 49°13' W 122°53'5 4.7
2014-Sep-10 21:33N 49°09' W 122°57'2 1.6
2014-Sep-10 20:33N 49°09' W 122°60'2 2.0
2014-Sep-10 19:33N 49°10' W 122°57'2 2.2
2014-Sep-10 18:33N 49°11' W 122°55'7 7.4
2014-Sep-10 17:33N 49°13' W 122°44'0 0.5
2014-Sep-10 16:33N 49°13' W 122°44'7 6.6
2014-Sep-10 15:33N 49°12' W 122°54'1 0.8
2014-Sep-10 14:33N 49°11' W 122°55'1 1.0
2014-Sep-10 13:33N 49°12' W 122°56'2 1.2
2014-Sep-10 11:34N 49°10' W 122°57'6 6.0
2014-Sep-10 10:33N 49°07' W 123°05'7 6.5
2014-Sep-10 09:33N 49°10' W 122°56'4 4.1
2014-Sep-10 08:33N 49°13' W 122°53'5 4.6
2014-Sep-10 07:34N 49°13' W 122°46'4 3.8
2014-Sep-10 06:33N 49°11' W 122°41'3 2.9
2014-Sep-10 05:33N 49°13' W 122°45'2 1.7
2014-Sep-10 04:33N 49°15' W 122°44'6 6.1
2014-Sep-10 03:33N 49°13' W 122°53'5 5.5
2014-Sep-10 02:33N 49°09' W 122°59'4 4.4
2014-Sep-10 01:34N 49°07' W 123°05'0 0.0
2014-Sep-10 00:33N 49°08' W 123°05'0 0.2
2014-Sep-09 23:33N 49°07' W 123°05'0 0.1
2014-Sep-09 22:33N 49°07' W 123°05'5 5.1
2014-Sep-09 21:33N 49°09' W 122°58'5 4.7
2014-Sep-09 20:33N 49°13' W 122°53'1 1.1
2014-Sep-09 19:33N 49°12' W 122°54'5 5.2
2014-Sep-09 18:33N 49°09' W 123°01'1 0.7
2014-Sep-09 17:33N 49°09' W 123°02'4 4.3
2014-Sep-09 16:33N 49°10' W 122°55'1 0.9
2014-Sep-09 15:33N 49°11' W 122°55'2 2.5
2014-Sep-09 14:33N 49°11' W 122°59'7 7.2
2014-Sep-09 13:33N 49°13' W 123°09'6 5.6
2014-Sep-09 12:33N 49°12' W 123°18'6 5.8
2014-Sep-09 11:33N 49°06' W 123°19'5 4.7
2014-Sep-09 10:33N 49°07' W 123°12'5 5.3
2014-Sep-09 09:33N 49°08' W 123°04'7 7.0
2014-Sep-09 08:33N 49°12' W 122°55'0 0.3
2014-Sep-09 07:33N 49°12' W 122°55'3 2.9
2014-Sep-09 06:33N 49°09' W 122°57'6 5.6
2014-Sep-09 05:33N 49°13' W 122°51'6 5.8
2014-Sep-09 04:33N 49°11' W 122°42'0 0.2
2014-Sep-09 03:33N 49°11' W 122°43'4 3.9
2014-Sep-09 02:33N 49°15' W 122°44'1 1.5
2014-Sep-09 01:33N 49°14' W 122°46'0 0.0
2014-Sep-09 00:33N 49°14' W 122°46'6 6.5
2014-Sep-08 23:33N 49°11' W 122°55'0 0.3
2014-Sep-08 22:33N 49°11' W 122°55'3 2.5
2014-Sep-08 21:32N 49°13' W 122°53'2 1.8
2014-Sep-08 20:33N 49°12' W 122°54'1 1.2
2014-Sep-08 19:33N 49°11' W 122°55'6 5.5
2014-Sep-08 18:33N 49°12' W 123°04'7 6.9
2014-Sep-08 17:33N 49°14' W 123°14'2 1.6
2014-Sep-08 16:33N 49°15' W 123°15'3 2.7
2014-Sep-08 15:33N 49°13' W 123°19'2 1.8
2014-Sep-08 14:33N 49°15' W 123°18'8 8.3
2014-Sep-08 13:33N 49°12' W 123°06'2 1.6
2014-Sep-08 12:30N 49°12' W 123°03'0 0.0
2014-Sep-08 07:33N 49°12' W 123°03'5 5.5
2014-Sep-08 06:33N 49°12' W 122°55'1 1.3
2014-Sep-08 05:33N 49°10' W 122°56'4 4.1
2014-Sep-08 04:33N 49°13' W 122°51'3 3.0
2014-Sep-08 03:28N 49°14' W 122°46'0 0.0
2014-Sep-08 02:26N 49°14' W 122°46'0 0.0
2014-Sep-08 01:33N 49°14' W 122°46'0 0.0
2014-Sep-08 00:22N 49°14' W 122°46'0 0.0
2014-Sep-07 23:32N 49°14' W 122°46'0 0.0
2014-Sep-07 21:20N 49°14' W 122°46'0 0.0
2014-Sep-07 20:29N 49°14' W 122°46'0 0.0
2014-Sep-07 19:33N 49°14' W 122°46'0 0.0
2014-Sep-07 18:33N 49°14' W 122°46'0 0.0
2014-Sep-07 17:33N 49°14' W 122°46'0 0.0
2014-Sep-07 16:30N 49°14' W 122°46'0 0.0
2014-Sep-07 15:33N 49°14' W 122°46'0 0.0
2014-Sep-07 14:33N 49°14' W 122°46'0 0.0
2014-Sep-07 13:33N 49°14' W 122°46'0 0.0
2014-Sep-07 12:33N 49°14' W 122°46'0 0.0
2014-Sep-07 11:33N 49°14' W 122°46'  

Dump ship's entire track history